sensor_id;sensor_type;location;lat;lon;timestamp;pressure;altitude;pressure_sealevel;temperature;humidity
35307;BME280;21420;52.196;21.416;2022-10-17T00:00:55;101155.17;;;12.56;64.80
35307;BME280;21420;52.196;21.416;2022-10-17T00:03:21;101153.91;;;12.54;64.86
35307;BME280;21420;52.196;21.416;2022-10-17T00:05:48;101159.39;;;12.54;64.97
35307;BME280;21420;52.196;21.416;2022-10-17T00:08:15;101161.66;;;12.52;64.99
35307;BME280;21420;52.196;21.416;2022-10-17T00:10:43;101163.48;;;12.47;64.98
35307;BME280;21420;52.196;21.416;2022-10-17T00:13:10;101173.73;;;12.44;65.04
35307;BME280;21420;52.196;21.416;2022-10-17T00:15:37;101175.91;;;12.45;65.21
35307;BME280;21420;52.196;21.416;2022-10-17T00:18:03;101175.36;;;12.45;65.32
35307;BME280;21420;52.196;21.416;2022-10-17T00:20:30;101181.66;;;12.46;65.28
35307;BME280;21420;52.196;21.416;2022-10-17T00:22:57;101189.41;;;12.44;65.30
35307;BME280;21420;52.196;21.416;2022-10-17T00:25:23;101185.87;;;12.43;65.40
35307;BME280;21420;52.196;21.416;2022-10-17T00:27:50;101181.40;;;12.45;65.47
35307;BME280;21420;52.196;21.416;2022-10-17T00:30:17;101186.44;;;12.43;65.41
35307;BME280;21420;52.196;21.416;2022-10-17T00:32:43;101190.08;;;12.41;65.42
35307;BME280;21420;52.196;21.416;2022-10-17T00:35:10;101187.98;;;12.38;65.43
35307;BME280;21420;52.196;21.416;2022-10-17T00:37:36;101179.61;;;12.34;65.47
35307;BME280;21420;52.196;21.416;2022-10-17T00:40:05;101188.16;;;12.33;65.54
35307;BME280;21420;52.196;21.416;2022-10-17T00:42:32;101184.14;;;12.30;65.57
35307;BME280;21420;52.196;21.416;2022-10-17T00:45:05;101177.69;;;12.26;65.60
35307;BME280;21420;52.196;21.416;2022-10-17T00:47:34;101173.97;;;12.22;65.60
35307;BME280;21420;52.196;21.416;2022-10-17T00:50:03;101170.36;;;12.15;65.65
35307;BME280;21420;52.196;21.416;2022-10-17T00:52:30;101168.02;;;12.11;65.69
35307;BME280;21420;52.196;21.416;2022-10-17T00:57:42;101170.08;;;11.99;65.60
35307;BME280;21420;52.196;21.416;2022-10-17T01:00:11;101179.06;;;11.94;65.67
35307;BME280;21420;52.196;21.416;2022-10-17T01:02:40;101178.09;;;11.90;65.67
35307;BME280;21420;52.196;21.416;2022-10-17T01:05:07;101185.84;;;11.87;65.74
35307;BME280;21420;52.196;21.416;2022-10-17T01:07:34;101191.12;;;11.84;65.72
35307;BME280;21420;52.196;21.416;2022-10-17T01:10:01;101184.27;;;11.84;65.89
35307;BME280;21420;52.196;21.416;2022-10-17T01:15:37;101186.33;;;11.90;66.03
35307;BME280;21420;52.196;21.416;2022-10-17T01:18:36;101179.15;;;11.91;66.02
35307;BME280;21420;52.196;21.416;2022-10-17T01:24:13;101187.22;;;11.87;66.08
35307;BME280;21420;52.196;21.416;2022-10-17T01:27:22;101190.81;;;11.85;66.18
35307;BME280;21420;52.196;21.416;2022-10-17T01:30:02;101197.19;;;11.83;66.19
35307;BME280;21420;52.196;21.416;2022-10-17T01:32:41;101196.80;;;11.79;66.21
35307;BME280;21420;52.196;21.416;2022-10-17T01:35:36;101193.34;;;11.76;66.13
35307;BME280;21420;52.196;21.416;2022-10-17T01:47:07;101208.34;;;11.61;66.20
35307;BME280;21420;52.196;21.416;2022-10-17T01:49:37;101210.51;;;11.61;66.29
35307;BME280;21420;52.196;21.416;2022-10-17T01:52:08;101201.39;;;11.63;66.29
35307;BME280;21420;52.196;21.416;2022-10-17T01:54:50;101198.08;;;11.64;66.26
35307;BME280;21420;52.196;21.416;2022-10-17T01:57:43;101188.16;;;11.65;66.34
35307;BME280;21420;52.196;21.416;2022-10-17T02:00:09;101189.14;;;11.70;66.48
35307;BME280;21420;52.196;21.416;2022-10-17T02:02:42;101193.56;;;11.77;66.61
35307;BME280;21420;52.196;21.416;2022-10-17T02:05:09;101189.22;;;11.84;66.69
35307;BME280;21420;52.196;21.416;2022-10-17T02:07:36;101185.84;;;11.87;66.64
35307;BME280;21420;52.196;21.416;2022-10-17T02:10:04;101183.90;;;11.88;66.67
35307;BME280;21420;52.196;21.416;2022-10-17T02:12:53;101175.66;;;11.88;66.65
35307;BME280;21420;52.196;21.416;2022-10-17T02:18:51;101169.75;;;11.83;66.62
35307;BME280;21420;52.196;21.416;2022-10-17T02:24:31;101183.08;;;11.79;66.71
35307;BME280;21420;52.196;21.416;2022-10-17T02:27:38;101184.27;;;11.75;66.77
35307;BME280;21420;52.196;21.416;2022-10-17T02:33:19;101202.63;;;11.69;66.74
35307;BME280;21420;52.196;21.416;2022-10-17T02:35:46;101200.34;;;11.71;66.80
35307;BME280;21420;52.196;21.416;2022-10-17T02:38:15;101190.73;;;11.71;66.86
35307;BME280;21420;52.196;21.416;2022-10-17T02:40:44;101188.42;;;11.66;66.71
35307;BME280;21420;52.196;21.416;2022-10-17T02:43:12;101187.85;;;11.58;66.55
35307;BME280;21420;52.196;21.416;2022-10-17T02:45:40;101191.39;;;11.50;66.50
35307;BME280;21420;52.196;21.416;2022-10-17T02:48:13;101198.91;;;11.47;66.72
35307;BME280;21420;52.196;21.416;2022-10-17T02:51:06;101206.33;;;11.46;66.80
35307;BME280;21420;52.196;21.416;2022-10-17T02:56:40;101222.30;;;11.44;66.87
35307;BME280;21420;52.196;21.416;2022-10-17T02:59:08;101229.64;;;11.46;66.98
35307;BME280;21420;52.196;21.416;2022-10-17T03:01:37;101232.30;;;11.49;67.04
35307;BME280;21420;52.196;21.416;2022-10-17T03:04:08;101238.27;;;11.51;67.01
35307;BME280;21420;52.196;21.416;2022-10-17T03:06:42;101235.92;;;11.47;66.92
35307;BME280;21420;52.196;21.416;2022-10-17T03:09:10;101237.95;;;11.44;66.87
35307;BME280;21420;52.196;21.416;2022-10-17T03:11:36;101242.45;;;11.40;66.89
35307;BME280;21420;52.196;21.416;2022-10-17T03:14:04;101241.66;;;11.39;67.00
35307;BME280;21420;52.196;21.416;2022-10-17T03:16:30;101244.05;;;11.41;67.05
35307;BME280;21420;52.196;21.416;2022-10-17T03:18:57;101251.79;;;11.39;67.12
35307;BME280;21420;52.196;21.416;2022-10-17T03:21:23;101252.84;;;11.40;67.15
35307;BME280;21420;52.196;21.416;2022-10-17T03:23:50;101251.79;;;11.39;67.12
35307;BME280;21420;52.196;21.416;2022-10-17T03:26:17;101255.36;;;11.39;67.09
35307;BME280;21420;52.196;21.416;2022-10-17T03:28:43;101253.81;;;11.36;67.04
35307;BME280;21420;52.196;21.416;2022-10-17T03:31:12;101261.86;;;11.32;67.06
35307;BME280;21420;52.196;21.416;2022-10-17T03:33:39;101263.00;;;11.31;67.10
35307;BME280;21420;52.196;21.416;2022-10-17T03:36:09;101265.25;;;11.29;67.11
35307;BME280;21420;52.196;21.416;2022-10-17T03:38:36;101257.91;;;11.27;67.16
35307;BME280;21420;52.196;21.416;2022-10-17T03:41:04;101256.30;;;11.26;67.23
35307;BME280;21420;52.196;21.416;2022-10-17T03:43:31;101256.53;;;11.27;67.29
35307;BME280;21420;52.196;21.416;2022-10-17T03:45:58;101261.21;;;11.27;67.31
35307;BME280;21420;52.196;21.416;2022-10-17T03:48:26;101268.14;;;11.24;67.36
35307;BME280;21420;52.196;21.416;2022-10-17T03:51:03;101279.42;;;11.22;67.36
35307;BME280;21420;52.196;21.416;2022-10-17T03:53:32;101278.63;;;11.22;67.44
35307;BME280;21420;52.196;21.416;2022-10-17T03:58:47;101281.44;;;11.19;67.46
35307;BME280;21420;52.196;21.416;2022-10-17T04:01:16;101281.36;;;11.22;67.55
35307;BME280;21420;52.196;21.416;2022-10-17T04:03:49;101279.99;;;11.22;67.54
35307;BME280;21420;52.196;21.416;2022-10-17T04:06:17;101286.58;;;11.21;67.51
35307;BME280;21420;52.196;21.416;2022-10-17T04:08:44;101284.26;;;11.17;67.49
35307;BME280;21420;52.196;21.416;2022-10-17T04:11:15;101286.09;;;11.19;67.55
35307;BME280;21420;52.196;21.416;2022-10-17T04:13:43;101280.79;;;11.22;67.61
35307;BME280;21420;52.196;21.416;2022-10-17T04:16:15;101278.54;;;11.24;67.60
35307;BME280;21420;52.196;21.416;2022-10-17T04:18:46;101284.25;;;11.25;67.61
35307;BME280;21420;52.196;21.416;2022-10-17T04:21:13;101281.20;;;11.27;67.61
35307;BME280;21420;52.196;21.416;2022-10-17T04:23:39;101282.50;;;11.30;67.65
35307;BME280;21420;52.196;21.416;2022-10-17T04:26:07;101288.97;;;11.34;67.68
35307;BME280;21420;52.196;21.416;2022-10-17T04:28:33;101290.52;;;11.37;67.75
35307;BME280;21420;52.196;21.416;2022-10-17T04:31:04;101289.22;;;11.43;67.76
35307;BME280;21420;52.196;21.416;2022-10-17T04:33:34;101288.19;;;11.42;67.65
35307;BME280;21420;52.196;21.416;2022-10-17T04:36:03;101286.48;;;11.43;67.68
35307;BME280;21420;52.196;21.416;2022-10-17T04:38:31;101291.65;;;11.45;67.72
35307;BME280;21420;52.196;21.416;2022-10-17T04:40:59;101294.39;;;11.45;67.72
35307;BME280;21420;52.196;21.416;2022-10-17T04:43:33;101293.59;;;11.44;67.72
35307;BME280;21420;52.196;21.416;2022-10-17T04:46:04;101301.43;;;11.49;67.83
35307;BME280;21420;52.196;21.416;2022-10-17T04:48:33;101298.76;;;11.55;67.90
35307;BME280;21420;52.196;21.416;2022-10-17T04:51:02;101301.03;;;11.61;67.94
35307;BME280;21420;52.196;21.416;2022-10-17T04:53:35;101293.20;;;11.66;67.98
35307;BME280;21420;52.196;21.416;2022-10-17T04:56:18;101298.30;;;11.70;67.87
35307;BME280;21420;52.196;21.416;2022-10-17T04:58:46;101300.02;;;11.69;67.75
35307;BME280;21420;52.196;21.416;2022-10-17T05:01:19;101301.62;;;11.70;67.79
35307;BME280;21420;52.196;21.416;2022-10-17T05:03:45;101295.90;;;11.69;67.69
35307;BME280;21420;52.196;21.416;2022-10-17T05:06:18;101292.48;;;11.63;67.60
35307;BME280;21420;52.196;21.416;2022-10-17T05:08:47;101293.14;;;11.60;67.59
35307;BME280;21420;52.196;21.416;2022-10-17T05:11:25;101304.60;;;11.62;67.84
35307;BME280;21420;52.196;21.416;2022-10-17T05:13:55;101307.75;;;11.66;67.96
35307;BME280;21420;52.196;21.416;2022-10-17T05:16:24;101313.39;;;11.70;68.00
35307;BME280;21420;52.196;21.416;2022-10-17T05:18:54;101313.57;;;11.74;68.06
35307;BME280;21420;52.196;21.416;2022-10-17T05:21:23;101323.89;;;11.77;68.09
35307;BME280;21420;52.196;21.416;2022-10-17T05:23:51;101324.46;;;11.76;68.03
35307;BME280;21420;52.196;21.416;2022-10-17T05:26:19;101326.06;;;11.77;68.09
35307;BME280;21420;52.196;21.416;2022-10-17T05:28:47;101330.93;;;11.80;68.10
35307;BME280;21420;52.196;21.416;2022-10-17T05:31:14;101328.41;;;11.81;68.09
35307;BME280;21420;52.196;21.416;2022-10-17T05:33:41;101326.95;;;11.84;68.10
35307;BME280;21420;52.196;21.416;2022-10-17T05:36:07;101336.77;;;11.87;68.12
35307;BME280;21420;52.196;21.416;2022-10-17T05:38:34;101347.27;;;11.94;68.22
35307;BME280;21420;52.196;21.416;2022-10-17T05:41:03;101350.52;;;12.05;68.29
35307;BME280;21420;52.196;21.416;2022-10-17T05:43:31;101358.41;;;12.15;68.33
35307;BME280;21420;52.196;21.416;2022-10-17T05:46:06;101359.48;;;12.25;68.34
35307;BME280;21420;52.196;21.416;2022-10-17T05:48:33;101374.02;;;12.35;68.37
35307;BME280;21420;52.196;21.416;2022-10-17T05:51:07;101373.84;;;12.48;68.42
35307;BME280;21420;52.196;21.416;2022-10-17T05:53:33;101364.63;;;12.53;68.28
35307;BME280;21420;52.196;21.416;2022-10-17T05:56:06;101352.66;;;12.58;68.25
35307;BME280;21420;52.196;21.416;2022-10-17T05:58:34;101365.98;;;12.62;68.23
35307;BME280;21420;52.196;21.416;2022-10-17T06:01:04;101366.06;;;12.68;68.33
35307;BME280;21420;52.196;21.416;2022-10-17T06:03:32;101374.04;;;12.76;68.23
35307;BME280;21420;52.196;21.416;2022-10-17T06:06:05;101373.15;;;12.78;68.10
35307;BME280;21420;52.196;21.416;2022-10-17T06:08:35;101376.06;;;12.81;68.06
35307;BME280;21420;52.196;21.416;2022-10-17T06:11:02;101383.14;;;12.91;68.10
35307;BME280;21420;52.196;21.416;2022-10-17T06:13:29;101386.84;;;13.04;68.21
35307;BME280;21420;52.196;21.416;2022-10-17T06:15:57;101393.80;;;13.25;68.39
35307;BME280;21420;52.196;21.416;2022-10-17T06:18:23;101408.17;;;13.69;68.91
35307;BME280;21420;52.196;21.416;2022-10-17T06:20:51;101406.50;;;14.27;69.22
35307;BME280;21420;52.196;21.416;2022-10-17T06:23:18;101402.75;;;14.80;69.22
35307;BME280;21420;52.196;21.416;2022-10-17T06:26:03;101406.15;;;15.10;68.81
35307;BME280;21420;52.196;21.416;2022-10-17T06:28:31;101414.42;;;15.10;68.25
35307;BME280;21420;52.196;21.416;2022-10-17T06:30:57;101416.36;;;15.04;67.88
35307;BME280;21420;52.196;21.416;2022-10-17T06:33:24;101414.43;;;15.04;67.92
35307;BME280;21420;52.196;21.416;2022-10-17T06:35:55;101410.95;;;15.01;67.59
35307;BME280;21420;52.196;21.416;2022-10-17T06:38:23;101404.23;;;14.84;67.36
35307;BME280;21420;52.196;21.416;2022-10-17T06:40:52;101404.62;;;14.94;67.89
35307;BME280;21420;52.196;21.416;2022-10-17T06:43:22;101406.85;;;15.19;68.24
35307;BME280;21420;52.196;21.416;2022-10-17T06:45:56;101411.16;;;15.85;68.57
35307;BME280;21420;52.196;21.416;2022-10-17T06:48:33;101427.71;;;16.50;68.47
35307;BME280;21420;52.196;21.416;2022-10-17T06:51:07;101424.57;;;17.14;68.48
35307;BME280;21420;52.196;21.416;2022-10-17T06:53:39;101427.96;;;17.86;68.55
35307;BME280;21420;52.196;21.416;2022-10-17T06:56:24;101429.50;;;18.39;67.91
35307;BME280;21420;52.196;21.416;2022-10-17T06:59:01;101432.16;;;18.80;67.67
35307;BME280;21420;52.196;21.416;2022-10-17T07:01:30;101434.73;;;19.35;67.21
35307;BME280;21420;52.196;21.416;2022-10-17T07:03:59;101441.34;;;19.63;66.85
35307;BME280;21420;52.196;21.416;2022-10-17T07:06:27;101441.98;;;19.89;66.38
35307;BME280;21420;52.196;21.416;2022-10-17T07:08:55;101435.69;;;20.36;66.83
35307;BME280;21420;52.196;21.416;2022-10-17T07:11:22;101429.22;;;20.92;66.41
35307;BME280;21420;52.196;21.416;2022-10-17T07:13:52;101426.28;;;21.39;66.44
35307;BME280;21420;52.196;21.416;2022-10-17T07:16:19;101432.78;;;21.78;65.59
35307;BME280;21420;52.196;21.416;2022-10-17T07:18:49;101432.70;;;21.99;65.33
35307;BME280;21420;52.196;21.416;2022-10-17T07:21:17;101436.21;;;22.55;66.02
35307;BME280;21420;52.196;21.416;2022-10-17T07:23:43;101436.83;;;22.61;63.93
35307;BME280;21420;52.196;21.416;2022-10-17T07:26:14;101435.44;;;22.61;64.06
35307;BME280;21420;52.196;21.416;2022-10-17T07:28:43;101432.52;;;22.33;62.86
35307;BME280;21420;52.196;21.416;2022-10-17T07:31:15;101433.30;;;21.43;62.00
35307;BME280;21420;52.196;21.416;2022-10-17T07:33:43;101429.76;;;21.46;63.02
35307;BME280;21420;52.196;21.416;2022-10-17T07:36:11;101440.22;;;21.63;63.44
35307;BME280;21420;52.196;21.416;2022-10-17T07:38:38;101436.73;;;22.05;63.49
35307;BME280;21420;52.196;21.416;2022-10-17T07:41:07;101446.91;;;22.38;62.93
35307;BME280;21420;52.196;21.416;2022-10-17T07:43:34;101452.57;;;22.56;62.64
35307;BME280;21420;52.196;21.416;2022-10-17T07:46:03;101452.57;;;22.56;62.64
35307;BME280;21420;52.196;21.416;2022-10-17T07:48:31;101458.25;;;22.04;61.81
35307;BME280;21420;52.196;21.416;2022-10-17T07:51:03;101455.40;;;21.46;61.57
35307;BME280;21420;52.196;21.416;2022-10-17T07:53:33;101453.53;;;20.78;60.94
35307;BME280;21420;52.196;21.416;2022-10-17T07:56:03;101442.66;;;19.69;61.66
35307;BME280;21420;52.196;21.416;2022-10-17T07:58:31;101442.66;;;19.69;61.66
35307;BME280;21420;52.196;21.416;2022-10-17T08:01:02;101461.45;;;19.66;62.26
35307;BME280;21420;52.196;21.416;2022-10-17T08:03:30;101467.68;;;19.83;62.73
35307;BME280;21420;52.196;21.416;2022-10-17T08:05:58;101472.02;;;20.20;63.08
35307;BME280;21420;52.196;21.416;2022-10-17T08:08:25;101472.81;;;20.51;63.09
35307;BME280;21420;52.196;21.416;2022-10-17T08:10:53;101470.09;;;20.54;62.87
35307;BME280;21420;52.196;21.416;2022-10-17T08:13:21;101471.50;;;20.71;63.04
35307;BME280;21420;52.196;21.416;2022-10-17T08:15:48;101477.47;;;21.24;63.76
35307;BME280;21420;52.196;21.416;2022-10-17T08:18:15;101472.18;;;22.36;64.31
35307;BME280;21420;52.196;21.416;2022-10-17T08:20:42;101476.12;;;23.26;63.82
35307;BME280;21420;52.196;21.416;2022-10-17T08:23:09;101477.53;;;24.01;63.56
35307;BME280;21420;52.196;21.416;2022-10-17T08:25:39;101473.46;;;24.35;61.96
35307;BME280;21420;52.196;21.416;2022-10-17T08:28:05;101476.30;;;24.79;62.50
35307;BME280;21420;52.196;21.416;2022-10-17T08:30:32;101474.57;;;25.88;62.33
35307;BME280;21420;52.196;21.416;2022-10-17T08:32:58;101472.53;;;26.30;61.18
35307;BME280;21420;52.196;21.416;2022-10-17T08:35:25;101476.22;;;26.24;60.71
35307;BME280;21420;52.196;21.416;2022-10-17T08:37:51;101470.91;;;26.67;61.62
35307;BME280;21420;52.196;21.416;2022-10-17T08:40:21;101470.72;;;27.24;60.99
35307;BME280;21420;52.196;21.416;2022-10-17T08:46:04;101476.71;;;27.89;60.33
35307;BME280;21420;52.196;21.416;2022-10-17T08:48:37;101475.05;;;27.79;59.23
35307;BME280;21420;52.196;21.416;2022-10-17T08:51:23;101460.97;;;27.32;58.76
35307;BME280;21420;52.196;21.416;2022-10-17T08:53:54;101469.73;;;26.80;58.09
35307;BME280;21420;52.196;21.416;2022-10-17T08:56:49;101465.14;;;26.28;57.98
35307;BME280;21420;52.196;21.416;2022-10-17T08:59:20;101457.44;;;26.51;58.89
35307;BME280;21420;52.196;21.416;2022-10-17T09:02:20;101464.93;;;27.23;59.03
35307;BME280;21420;52.196;21.416;2022-10-17T09:05:03;101459.66;;;28.19;59.38
35307;BME280;21420;52.196;21.416;2022-10-17T09:10:43;101458.42;;;28.80;58.19
35307;BME280;21420;52.196;21.416;2022-10-17T09:13:31;101451.14;;;28.63;56.56
35307;BME280;21420;52.196;21.416;2022-10-17T09:16:26;101457.53;;;29.12;57.13
35307;BME280;21420;52.196;21.416;2022-10-17T09:19:22;101456.48;;;29.14;55.93
35307;BME280;21420;52.196;21.416;2022-10-17T09:22:00;101452.86;;;29.21;55.20
35307;BME280;21420;52.196;21.416;2022-10-17T09:24:38;101456.36;;;29.09;55.14
35307;BME280;21420;52.196;21.416;2022-10-17T09:27:17;101454.70;;;29.20;55.50
35307;BME280;21420;52.196;21.416;2022-10-17T09:33:12;101450.51;;;30.36;55.76
35307;BME280;21420;52.196;21.416;2022-10-17T09:35:41;101451.87;;;30.65;55.54
35307;BME280;21420;52.196;21.416;2022-10-17T09:38:12;101446.96;;;31.25;55.72
35307;BME280;21420;52.196;21.416;2022-10-17T09:40:40;101445.64;;;31.34;53.94
35307;BME280;21420;52.196;21.416;2022-10-17T09:43:10;101452.62;;;30.53;52.44
35307;BME280;21420;52.196;21.416;2022-10-17T09:45:41;101451.23;;;30.32;53.37
35307;BME280;21420;52.196;21.416;2022-10-17T09:48:28;101453.76;;;30.05;52.06
35307;BME280;21420;52.196;21.416;2022-10-17T09:51:02;101450.45;;;29.61;52.55
35307;BME280;21420;52.196;21.416;2022-10-17T09:53:39;101451.98;;;29.74;53.40
35307;BME280;21420;52.196;21.416;2022-10-17T09:56:15;101452.21;;;30.17;53.96
35307;BME280;21420;52.196;21.416;2022-10-17T09:58:52;101450.98;;;30.47;54.00
35307;BME280;21420;52.196;21.416;2022-10-17T10:01:23;101445.27;;;30.76;53.81
35307;BME280;21420;52.196;21.416;2022-10-17T10:04:13;101443.94;;;30.18;52.17
35307;BME280;21420;52.196;21.416;2022-10-17T10:07:05;101443.47;;;30.27;53.32
35307;BME280;21420;52.196;21.416;2022-10-17T10:09:33;101446.02;;;30.30;52.71
35307;BME280;21420;52.196;21.416;2022-10-17T10:12:00;101438.70;;;30.24;52.08
35307;BME280;21420;52.196;21.416;2022-10-17T10:14:34;101436.83;;;29.97;51.37
35307;BME280;21420;52.196;21.416;2022-10-17T10:17:03;101435.55;;;29.85;52.00
35307;BME280;21420;52.196;21.416;2022-10-17T10:19:36;101436.41;;;30.27;52.33
35307;BME280;21420;52.196;21.416;2022-10-17T10:22:15;101435.91;;;30.08;51.50
35307;BME280;21420;52.196;21.416;2022-10-17T10:24:43;101433.14;;;30.00;51.62
35307;BME280;21420;52.196;21.416;2022-10-17T10:27:16;101430.98;;;29.66;50.81
35307;BME280;21420;52.196;21.416;2022-10-17T10:29:50;101419.20;;;29.31;50.42
35307;BME280;21420;52.196;21.416;2022-10-17T10:32:20;101422.27;;;29.53;51.24
35307;BME280;21420;52.196;21.416;2022-10-17T10:37:41;101417.77;;;29.63;50.99
35307;BME280;21420;52.196;21.416;2022-10-17T10:40:28;101425.45;;;29.46;50.45
35307;BME280;21420;52.196;21.416;2022-10-17T10:42:54;101417.53;;;29.17;50.63
35307;BME280;21420;52.196;21.416;2022-10-17T10:45:28;101426.11;;;29.83;51.57
35307;BME280;21420;52.196;21.416;2022-10-17T10:51:11;101416.63;;;31.08;52.12
35307;BME280;21420;52.196;21.416;2022-10-17T10:54:09;101424.42;;;31.17;51.35
35307;BME280;21420;52.196;21.416;2022-10-17T10:56:45;101423.77;;;31.43;51.08
35307;BME280;21420;52.196;21.416;2022-10-17T10:59:29;101421.64;;;32.04;51.04
35307;BME280;21420;52.196;21.416;2022-10-17T11:08:05;101416.64;;;30.61;48.36
35307;BME280;21420;52.196;21.416;2022-10-17T11:10:43;101416.08;;;30.66;49.77
35307;BME280;21420;52.196;21.416;2022-10-17T11:13:25;101416.77;;;30.83;49.67
35307;BME280;21420;52.196;21.416;2022-10-17T11:16:00;101416.92;;;30.17;47.48
35307;BME280;21420;52.196;21.416;2022-10-17T11:18:41;101421.73;;;29.50;48.65
35307;BME280;21420;52.196;21.416;2022-10-17T11:21:17;101419.16;;;29.06;47.86
35307;BME280;21420;52.196;21.416;2022-10-17T11:24:02;101414.13;;;28.53;48.63
35307;BME280;21420;52.196;21.416;2022-10-17T11:26:55;101411.61;;;28.18;48.14
35307;BME280;21420;52.196;21.416;2022-10-17T11:29:23;101416.95;;;27.93;49.05
35307;BME280;21420;52.196;21.416;2022-10-17T11:31:53;101413.23;;;28.08;49.53
35307;BME280;21420;52.196;21.416;2022-10-17T11:34:30;101415.36;;;28.32;49.77
35307;BME280;21420;52.196;21.416;2022-10-17T11:37:01;101411.70;;;28.15;48.62
35307;BME280;21420;52.196;21.416;2022-10-17T11:42:54;101412.02;;;27.65;48.50
35307;BME280;21420;52.196;21.416;2022-10-17T11:45:17;101413.70;;;27.71;48.96
35307;BME280;21420;52.196;21.416;2022-10-17T11:47:49;101418.67;;;27.39;48.74
35307;BME280;21420;52.196;21.416;2022-10-17T11:50:29;101413.73;;;27.47;49.17
35307;BME280;21420;52.196;21.416;2022-10-17T11:55:45;101407.38;;;27.31;48.57
35307;BME280;21420;52.196;21.416;2022-10-17T11:58:40;101413.67;;;27.00;48.87
35307;BME280;21420;52.196;21.416;2022-10-17T12:01:36;101409.46;;;26.57;48.35
35307;BME280;21420;52.196;21.416;2022-10-17T12:07:14;101414.66;;;26.40;49.50
35307;BME280;21420;52.196;21.416;2022-10-17T12:12:33;101411.07;;;26.70;49.45
35307;BME280;21420;52.196;21.416;2022-10-17T12:17:59;101412.95;;;26.15;49.14
35307;BME280;21420;52.196;21.416;2022-10-17T12:20:32;101407.08;;;26.22;49.69
35307;BME280;21420;52.196;21.416;2022-10-17T12:33:50;101409.28;;;26.84;49.35
35307;BME280;21420;52.196;21.416;2022-10-17T12:55:13;101390.16;;;27.73;49.07
35307;BME280;21420;52.196;21.416;2022-10-17T12:58:00;101389.85;;;27.67;48.62
35307;BME280;21420;52.196;21.416;2022-10-17T13:00:43;101387.98;;;27.49;48.66
35307;BME280;21420;52.196;21.416;2022-10-17T13:03:25;101391.23;;;27.59;48.59
35307;BME280;21420;52.196;21.416;2022-10-17T13:05:55;101391.12;;;27.15;48.05
35307;BME280;21420;52.196;21.416;2022-10-17T13:08:42;101391.76;;;26.61;47.75
35307;BME280;21420;52.196;21.416;2022-10-17T13:11:07;101388.34;;;26.46;48.48
35307;BME280;21420;52.196;21.416;2022-10-17T13:13:49;101383.27;;;26.33;48.43
35307;BME280;21420;52.196;21.416;2022-10-17T13:16:35;101381.03;;;26.21;48.14
35307;BME280;21420;52.196;21.416;2022-10-17T13:19:23;101370.32;;;25.93;48.24
35307;BME280;21420;52.196;21.416;2022-10-17T13:21:57;101368.55;;;25.69;48.34
35307;BME280;21420;52.196;21.416;2022-10-17T13:24:31;101366.17;;;25.86;48.93
35307;BME280;21420;52.196;21.416;2022-10-17T13:27:00;101367.25;;;25.81;48.84
35307;BME280;21420;52.196;21.416;2022-10-17T13:29:28;101370.96;;;25.89;49.03
35307;BME280;21420;52.196;21.416;2022-10-17T13:32:01;101370.61;;;25.87;48.76
35307;BME280;21420;52.196;21.416;2022-10-17T13:34:30;101373.42;;;25.87;49.04
35307;BME280;21420;52.196;21.416;2022-10-17T13:37:03;101365.64;;;25.80;48.75
35307;BME280;21420;52.196;21.416;2022-10-17T13:39:46;101367.51;;;25.74;48.87
35307;BME280;21420;52.196;21.416;2022-10-17T13:44:49;101369.98;;;25.46;48.76
35307;BME280;21420;52.196;21.416;2022-10-17T13:47:31;101369.66;;;25.37;48.88
35307;BME280;21420;52.196;21.416;2022-10-17T13:50:00;101365.36;;;25.29;48.77
35307;BME280;21420;52.196;21.416;2022-10-17T13:52:28;101368.84;;;25.14;48.89
35307;BME280;21420;52.196;21.416;2022-10-17T13:55:07;101358.89;;;25.06;48.95
35307;BME280;21420;52.196;21.416;2022-10-17T13:57:35;101352.56;;;24.98;49.03
35307;BME280;21420;52.196;21.416;2022-10-17T14:00:10;101354.02;;;24.91;49.12
35307;BME280;21420;52.196;21.416;2022-10-17T14:02:40;101356.43;;;24.89;49.15
35307;BME280;21420;52.196;21.416;2022-10-17T14:05:18;101347.92;;;24.77;49.03
35307;BME280;21420;52.196;21.416;2022-10-17T14:10:25;101351.13;;;24.31;49.06
35307;BME280;21420;52.196;21.416;2022-10-17T14:12:54;101350.20;;;24.19;49.23
35307;BME280;21420;52.196;21.416;2022-10-17T14:15:24;101347.72;;;23.88;48.89
35307;BME280;21420;52.196;21.416;2022-10-17T14:17:58;101345.16;;;23.64;49.13
35307;BME280;21420;52.196;21.416;2022-10-17T14:20:30;101340.01;;;23.41;49.13
35307;BME280;21420;52.196;21.416;2022-10-17T14:22:58;101340.23;;;23.20;49.33
35307;BME280;21420;52.196;21.416;2022-10-17T14:25:30;101338.24;;;22.99;49.30
35307;BME280;21420;52.196;21.416;2022-10-17T14:30:48;101337.74;;;22.58;49.56
35307;BME280;21420;52.196;21.416;2022-10-17T14:33:27;101340.29;;;22.42;49.74
35307;BME280;21420;52.196;21.416;2022-10-17T14:35:56;101338.41;;;22.19;49.69
35307;BME280;21420;52.196;21.416;2022-10-17T14:38:25;101335.92;;;21.96;49.89
35307;BME280;21420;52.196;21.416;2022-10-17T14:43:43;101328.30;;;21.51;50.13
35307;BME280;21420;52.196;21.416;2022-10-17T14:46:13;101325.92;;;21.29;50.26
35307;BME280;21420;52.196;21.416;2022-10-17T14:48:41;101324.02;;;21.12;50.42
35307;BME280;21420;52.196;21.416;2022-10-17T14:51:13;101317.11;;;20.95;50.53
35307;BME280;21420;52.196;21.416;2022-10-17T14:53:43;101311.98;;;20.77;50.67
35307;BME280;21420;52.196;21.416;2022-10-17T14:56:39;101310.46;;;20.63;50.86